Waterbury, Connecticut
Current Conditions -  °F | °C
As of 4:52 PM on Tuesday 25 Nov 2014 (Local Time) from KOXC Reporting Station
Broken Clouds Broken Clouds  
Wind Chill: 48°   Ceiling: 25000
Heat Index: 48°   Visibility: 10mi
Dew Point: 27°   Wind: 0mph
Humidity: 43%   Direction: NA
Pressure: 30.01"   Gusts: NA
Location:  41.55°N, 73.05°W
Report Text: KOXC 252152Z 00000KT 10SM BKN250 09/M03 A3001
Loading
Personal Weather Stations






























Interactive Weather Map New forecast layout! Learn more

10-Day Weather Forecast

Advertisements
Track Severe Weather on mobile